createdAt,value
2022-11-04T00:02:17.457Z,23.10
2022-11-04T00:04:53.452Z,23.40
2022-11-04T00:07:47.214Z,21.60
2022-11-04T00:10:43.125Z,21.80
2022-11-04T00:13:19.088Z,21.80
2022-11-04T00:16:12.273Z,21.60
2022-11-04T00:18:48.210Z,23.50
2022-11-04T00:21:42.117Z,22.50
2022-11-04T00:24:44.663Z,25.40
2022-11-04T00:27:41.296Z,23.00
2022-11-04T00:30:18.048Z,24.70
2022-11-04T00:33:11.605Z,24.00
2022-11-04T00:35:52.908Z,23.30
2022-11-04T00:38:29.351Z,24.50
2022-11-04T00:41:25.439Z,23.20
2022-11-04T00:44:03.823Z,27.10
2022-11-04T00:46:39.806Z,24.00
2022-11-04T00:49:15.869Z,23.50
2022-11-04T00:51:51.918Z,21.60
2022-11-04T00:54:27.992Z,26.70
2022-11-04T00:57:03.944Z,21.50
2022-11-04T00:59:40.713Z,21.20
2022-11-04T01:02:17.036Z,22.00
2022-11-04T01:04:53.963Z,20.90
2022-11-04T01:07:30.034Z,21.60
2022-11-04T01:10:06.909Z,20.20
2022-11-04T01:12:42.700Z,20.90
2022-11-04T01:15:18.982Z,22.00
2022-11-04T01:17:54.910Z,23.10
2022-11-04T01:20:30.958Z,24.40
2022-11-04T01:23:07.056Z,19.80
2022-11-04T01:25:46.333Z,20.10
2022-11-04T01:28:22.193Z,19.80
2022-11-04T01:30:58.295Z,19.50
2022-11-04T01:33:34.501Z,19.70
2022-11-04T01:36:13.764Z,18.90
2022-11-04T01:38:50.240Z,20.10
2022-11-04T01:41:31.034Z,21.10
2022-11-04T01:44:39.436Z,22.30
2022-11-04T01:47:21.597Z,24.00
2022-11-04T01:50:01.878Z,18.60
2022-11-04T01:52:46.783Z,23.30
2022-11-04T01:55:28.671Z,18.90
2022-11-04T01:58:18.455Z,20.10
2022-11-04T02:00:54.720Z,20.90
2022-11-04T02:03:37.637Z,21.30
2022-11-04T02:06:15.280Z,24.60
2022-11-04T02:08:51.842Z,19.20
2022-11-04T02:11:45.561Z,20.50
2022-11-04T02:14:21.610Z,17.70
2022-11-04T02:17:06.974Z,20.50
2022-11-04T02:20:22.643Z,19.60
2022-11-04T02:23:52.064Z,22.00
2022-11-04T02:27:30.063Z,21.00
2022-11-04T02:30:17.832Z,19.50
2022-11-04T02:33:35.423Z,18.70
2022-11-04T02:36:23.661Z,21.90
2022-11-04T02:39:09.247Z,24.30
2022-11-04T02:41:56.708Z,21.10
2022-11-04T02:44:41.609Z,20.00
2022-11-04T02:47:27.597Z,20.60
2022-11-04T02:50:13.169Z,23.00
2022-11-04T02:52:57.586Z,22.20
2022-11-04T02:55:41.667Z,24.50
2022-11-04T02:58:26.740Z,23.80
2022-11-04T03:01:06.204Z,18.10
2022-11-04T03:03:50.734Z,18.80
2022-11-04T03:06:29.714Z,18.50
2022-11-04T03:09:07.841Z,23.20
2022-11-04T03:11:51.078Z,25.20
2022-11-04T03:14:36.812Z,17.50
2022-11-04T03:17:20.595Z,22.40
2022-11-04T03:20:02.649Z,20.70
2022-11-04T03:22:40.466Z,20.90
2022-11-04T03:25:17.155Z,20.10
2022-11-04T03:28:03.252Z,16.60
2022-11-04T03:30:49.180Z,20.70
2022-11-04T03:33:36.955Z,18.80
2022-11-04T03:36:13.539Z,19.60
2022-11-04T03:38:50.824Z,23.90
2022-11-04T03:41:37.065Z,19.10
2022-11-04T03:44:13.239Z,21.20
2022-11-04T03:46:49.587Z,19.30
2022-11-04T03:49:27.436Z,19.00
2022-11-04T03:52:03.437Z,19.10
2022-11-04T03:54:39.827Z,22.90
2022-11-04T03:57:39.450Z,26.80
2022-11-04T04:00:21.251Z,21.60
2022-11-04T04:03:16.818Z,23.50
2022-11-04T04:06:00.681Z,19.40
2022-11-04T04:08:44.670Z,21.10
2022-11-04T04:11:30.713Z,22.90
2022-11-04T04:14:39.288Z,19.90
2022-11-04T04:17:23.299Z,18.70
2022-11-04T04:20:05.428Z,19.50
2022-11-04T04:22:47.534Z,19.80
2022-11-04T04:25:45.725Z,21.00
2022-11-04T04:28:23.829Z,23.80
2022-11-04T04:31:00.535Z,18.50
2022-11-04T04:33:37.770Z,21.10
2022-11-04T04:36:14.603Z,19.50
2022-11-04T04:39:08.525Z,18.30
2022-11-04T04:42:02.605Z,22.50
2022-11-04T04:44:56.588Z,19.70
2022-11-04T04:47:42.428Z,21.20
2022-11-04T04:50:22.596Z,19.40
2022-11-04T04:53:04.099Z,19.10
2022-11-04T04:55:41.744Z,22.20
2022-11-04T04:58:18.159Z,22.30
2022-11-04T05:00:54.169Z,19.70
2022-11-04T05:03:31.395Z,23.50
2022-11-04T05:06:07.704Z,19.90
2022-11-04T05:08:43.704Z,20.80
2022-11-04T05:11:24.418Z,21.80
2022-11-04T05:14:03.189Z,19.50
2022-11-04T05:16:40.971Z,19.90
2022-11-04T05:19:17.080Z,22.70
2022-11-04T05:21:53.111Z,19.90
2022-11-04T05:24:29.218Z,23.80
2022-11-04T05:27:05.169Z,18.00
2022-11-04T05:29:40.946Z,19.00
2022-11-04T05:32:16.942Z,20.70
2022-11-04T05:34:53.107Z,18.80
2022-11-04T05:37:29.277Z,17.80
2022-11-04T05:40:05.932Z,21.00
2022-11-04T05:42:41.972Z,18.20
2022-11-04T05:45:18.402Z,21.90
2022-11-04T05:48:02.682Z,22.70
2022-11-04T05:50:38.716Z,20.00
2022-11-04T05:53:14.655Z,20.00
2022-11-04T05:55:50.721Z,18.20
2022-11-04T05:58:26.916Z,19.50
2022-11-04T06:01:27.112Z,21.30
2022-11-04T06:04:05.333Z,20.00
2022-11-04T06:06:41.788Z,18.50
2022-11-04T06:09:17.757Z,19.70
2022-11-04T06:11:53.630Z,19.90
2022-11-04T06:14:29.948Z,16.30
2022-11-04T06:17:06.531Z,26.10
2022-11-04T06:19:42.470Z,19.00
2022-11-04T06:22:20.505Z,22.10
2022-11-04T06:24:56.699Z,17.90
2022-11-04T06:27:32.746Z,14.70
2022-11-04T06:30:12.095Z,19.10
2022-11-04T06:32:47.978Z,17.10
2022-11-04T06:35:27.379Z,17.10
2022-11-04T06:38:03.265Z,16.10
2022-11-04T06:40:39.234Z,19.40
2022-11-04T06:43:15.245Z,19.70
2022-11-04T06:45:58.212Z,19.70
2022-11-04T06:48:34.631Z,15.80
2022-11-04T06:51:11.858Z,21.80
2022-11-04T06:53:47.829Z,20.20
2022-11-04T06:56:24.104Z,18.40
2022-11-04T06:59:00.442Z,20.20
2022-11-04T07:01:39.301Z,21.30
2022-11-04T07:04:15.389Z,25.80
2022-11-04T07:06:51.290Z,21.20
2022-11-04T07:09:27.300Z,17.70
2022-11-04T07:12:03.261Z,15.00
2022-11-04T07:14:39.114Z,19.90
2022-11-04T07:17:15.116Z,22.40
2022-11-04T07:19:51.028Z,20.90
2022-11-04T07:22:26.982Z,16.90
2022-11-04T07:25:02.778Z,17.90
2022-11-04T07:27:39.622Z,15.10
2022-11-04T07:30:17.141Z,16.60
2022-11-04T07:32:53.265Z,17.00
2022-11-04T07:35:29.425Z,19.40
2022-11-04T07:38:05.808Z,13.90
2022-11-04T07:40:41.793Z,17.80
2022-11-04T07:43:17.947Z,15.30
2022-11-04T07:46:07.179Z,13.40
2022-11-04T07:48:43.836Z,13.90
2022-11-04T07:51:23.603Z,11.70
2022-11-04T07:54:01.507Z,13.40
2022-11-04T07:56:37.352Z,13.30
2022-11-04T07:59:13.401Z,15.20
2022-11-04T08:01:49.412Z,13.20
2022-11-04T08:04:25.596Z,10.80
2022-11-04T08:07:02.110Z,10.60
2022-11-04T08:09:38.458Z,10.20
2022-11-04T08:12:14.329Z,9.50
2022-11-04T08:14:50.167Z,12.00
2022-11-04T08:17:26.121Z,12.10
2022-11-04T08:20:02.068Z,10.60
2022-11-04T08:22:38.554Z,10.50
2022-11-04T08:25:15.340Z,10.20
2022-11-04T08:27:51.164Z,13.50
2022-11-04T08:30:27.336Z,9.50
2022-11-04T08:33:05.523Z,10.00
2022-11-04T08:35:43.039Z,10.70
2022-11-04T08:38:19.010Z,11.40
2022-11-04T08:41:00.079Z,13.00
2022-11-04T08:43:36.897Z,14.70
2022-11-04T08:46:15.201Z,16.30
2022-11-04T08:48:51.615Z,14.50
2022-11-04T08:51:32.164Z,15.40
2022-11-04T08:54:09.061Z,11.60
2022-11-04T08:56:44.917Z,13.30
2022-11-04T08:59:20.871Z,13.60
2022-11-04T09:01:56.836Z,14.80
2022-11-04T09:04:32.932Z,16.50
2022-11-04T09:07:09.442Z,13.90
2022-11-04T09:09:45.868Z,11.30
2022-11-04T09:12:21.885Z,14.00
2022-11-04T09:14:58.000Z,15.40
2022-11-04T09:17:34.126Z,13.30
2022-11-04T09:20:12.772Z,12.70
2022-11-04T09:22:50.676Z,17.60
2022-11-04T09:25:26.786Z,19.80
2022-11-04T09:28:04.735Z,12.80
2022-11-04T09:30:41.180Z,12.00
2022-11-04T09:33:17.031Z,16.50
2022-11-04T09:36:01.454Z,11.40
2022-11-04T09:38:38.846Z,11.40
2022-11-04T09:42:20.153Z,17.10
2022-11-04T09:48:06.073Z,11.90
2022-11-04T09:50:57.048Z,15.50
2022-11-04T09:53:48.911Z,11.50
2022-11-04T09:56:34.187Z,12.70
2022-11-04T09:59:15.318Z,9.40
2022-11-04T10:02:07.053Z,11.70
2022-11-04T10:05:06.022Z,14.20
2022-11-04T10:08:11.800Z,14.60
2022-11-04T10:10:57.046Z,12.40
2022-11-04T10:13:51.626Z,10.60
2022-11-04T10:16:52.206Z,15.40
2022-11-04T10:19:55.325Z,14.70
2022-11-04T10:22:41.235Z,19.70
2022-11-04T10:25:26.493Z,15.90
2022-11-04T10:28:04.398Z,18.80
2022-11-04T10:30:42.574Z,15.30
2022-11-04T10:33:30.045Z,15.30
2022-11-04T10:36:10.810Z,12.60
2022-11-04T10:38:51.324Z,14.20
2022-11-04T10:41:38.208Z,12.40
2022-11-04T10:44:25.248Z,17.70
2022-11-04T10:47:16.753Z,14.90
2022-11-04T10:50:30.490Z,15.40
2022-11-04T10:53:20.160Z,14.70
2022-11-04T10:56:05.388Z,19.80
2022-11-04T10:58:48.917Z,10.40
2022-11-04T11:01:35.691Z,10.00
2022-11-04T11:04:31.321Z,8.80
2022-11-04T11:07:11.558Z,8.10
2022-11-04T11:10:00.674Z,9.50
2022-11-04T11:12:51.731Z,10.00
2022-11-04T11:15:42.280Z,10.30
2022-11-04T11:18:23.648Z,11.70
2022-11-04T11:21:21.325Z,10.10
2022-11-04T11:23:57.978Z,7.90
2022-11-04T11:26:36.558Z,9.80
2022-11-04T11:29:17.601Z,9.70
2022-11-04T11:31:55.149Z,8.90
2022-11-04T11:34:38.426Z,8.90
2022-11-04T11:37:27.173Z,9.50
2022-11-04T11:40:03.173Z,8.80
2022-11-04T11:42:45.325Z,8.40
2022-11-04T11:45:26.576Z,8.10
2022-11-04T11:48:02.563Z,12.80
2022-11-04T11:50:38.773Z,8.50
2022-11-04T11:53:24.447Z,10.30
2022-11-04T11:56:17.292Z,8.40
2022-11-04T12:02:28.670Z,8.40
2022-11-04T12:11:41.461Z,9.90
2022-11-04T12:14:33.795Z,9.90
2022-11-04T12:17:30.523Z,11.80
2022-11-04T12:20:27.150Z,10.00
2022-11-04T12:23:17.743Z,9.20
2022-11-04T12:26:15.606Z,10.10
2022-11-04T12:29:13.700Z,11.00
2022-11-04T12:32:05.111Z,8.80
2022-11-04T12:35:08.654Z,10.50
2022-11-04T12:38:09.767Z,16.60
2022-11-04T12:41:27.654Z,11.10
2022-11-04T12:44:09.160Z,9.50
2022-11-04T12:47:00.516Z,9.40
2022-11-04T12:50:17.119Z,9.40
2022-11-04T12:53:17.123Z,8.40
2022-11-04T12:56:10.620Z,10.10
2022-11-04T12:59:15.068Z,9.00
2022-11-04T13:01:57.594Z,11.70
2022-11-04T13:04:41.303Z,11.90
2022-11-04T13:07:26.086Z,10.90
2022-11-04T13:10:08.733Z,9.50
2022-11-04T13:12:50.705Z,11.90
2022-11-04T13:15:31.828Z,11.20
2022-11-04T13:18:17.599Z,10.10
2022-11-04T13:21:04.281Z,12.60
2022-11-04T13:23:51.827Z,11.50
2022-11-04T13:26:28.303Z,13.40
2022-11-04T13:29:13.658Z,12.10
2022-11-04T13:32:00.346Z,12.30
2022-11-04T13:34:56.272Z,18.90
2022-11-04T13:37:38.463Z,14.30
2022-11-04T13:40:23.227Z,15.80
2022-11-04T13:43:41.223Z,14.50
2022-11-04T13:46:30.791Z,18.70
2022-11-04T13:49:23.819Z,15.50
2022-11-04T13:52:11.572Z,12.40
2022-11-04T13:54:57.269Z,17.50
2022-11-04T13:57:49.386Z,14.90
2022-11-04T14:00:31.840Z,13.80
2022-11-04T14:03:54.464Z,13.50
2022-11-04T14:06:59.988Z,10.10
2022-11-04T14:09:56.587Z,12.80
2022-11-04T14:12:37.919Z,12.50
2022-11-04T14:16:05.792Z,16.50
2022-11-04T14:18:44.782Z,18.00
2022-11-04T14:21:24.279Z,17.40
2022-11-04T14:24:16.325Z,11.80
2022-11-04T14:26:52.950Z,18.00
2022-11-04T14:29:32.349Z,12.40
2022-11-04T14:32:16.125Z,19.40
2022-11-04T14:35:01.224Z,14.80
2022-11-04T14:37:39.926Z,19.70
2022-11-04T14:40:46.566Z,17.30
2022-11-04T14:43:36.526Z,14.30
2022-11-04T14:46:19.643Z,18.00
2022-11-04T14:49:01.829Z,15.50
2022-11-04T14:51:44.018Z,15.10
2022-11-04T14:54:28.114Z,20.00
2022-11-04T14:57:21.558Z,20.40
2022-11-04T14:59:57.405Z,16.20
2022-11-04T15:02:35.635Z,18.80
2022-11-04T15:05:29.593Z,16.60
2022-11-04T15:08:19.688Z,20.10
2022-11-04T15:11:01.451Z,20.00
2022-11-04T15:13:47.885Z,20.60
2022-11-04T15:16:27.956Z,20.50
2022-11-04T15:19:04.408Z,20.80
2022-11-04T15:21:48.490Z,23.60
2022-11-04T15:24:25.478Z,18.20
2022-11-04T15:27:07.517Z,19.90
2022-11-04T15:29:53.795Z,20.20
2022-11-04T15:32:30.715Z,18.80
2022-11-04T15:35:07.749Z,22.30
2022-11-04T15:37:47.305Z,24.80
2022-11-04T15:40:25.481Z,23.00
2022-11-04T15:43:05.324Z,43.50
2022-11-04T15:45:52.847Z,26.00
2022-11-04T15:48:37.945Z,23.10
2022-11-04T15:51:25.599Z,21.50
2022-11-04T15:54:06.555Z,20.20
2022-11-04T15:56:55.360Z,21.20
2022-11-04T15:59:36.055Z,29.00
2022-11-04T16:02:28.579Z,24.30
2022-11-04T16:05:28.616Z,25.60
2022-11-04T16:08:28.574Z,23.70
2022-11-04T16:11:22.754Z,24.10
2022-11-04T16:14:24.979Z,23.30
2022-11-04T16:17:01.626Z,25.50
2022-11-04T16:19:38.067Z,25.80
2022-11-04T16:22:21.973Z,28.60
2022-11-04T16:24:59.463Z,30.20
2022-11-04T16:27:38.381Z,30.60
2022-11-04T16:30:23.496Z,26.60
2022-11-04T16:33:11.421Z,27.60
2022-11-04T16:35:47.592Z,27.90
2022-11-04T16:38:23.921Z,37.50
2022-11-04T16:40:59.849Z,31.50
2022-11-04T16:43:42.167Z,31.60
2022-11-04T16:46:19.408Z,33.30
2022-11-04T16:48:55.305Z,31.40
2022-11-04T16:51:34.468Z,32.10
2022-11-04T16:54:11.024Z,28.00
2022-11-04T16:56:46.909Z,27.70
2022-11-04T16:59:23.653Z,30.80
2022-11-04T17:02:00.582Z,28.70
2022-11-04T17:04:36.782Z,30.40
2022-11-04T17:07:13.708Z,34.20
2022-11-04T17:09:49.862Z,28.70
2022-11-04T17:12:25.909Z,29.70
2022-11-04T17:15:02.904Z,30.00
2022-11-04T17:17:39.460Z,28.80
2022-11-04T17:20:20.567Z,31.20
2022-11-04T17:22:56.892Z,32.60
2022-11-04T17:25:34.155Z,30.50
2022-11-04T17:28:10.370Z,29.60
2022-11-04T17:30:47.363Z,29.50
2022-11-04T17:33:24.655Z,29.60
2022-11-04T17:36:06.343Z,33.70
2022-11-04T17:38:43.540Z,32.40
2022-11-04T17:41:37.115Z,29.40
2022-11-04T17:44:13.589Z,31.80
2022-11-04T17:46:49.738Z,29.50
2022-11-04T17:49:28.772Z,28.90
2022-11-04T17:52:04.801Z,29.00
2022-11-04T17:54:40.812Z,30.90
2022-11-04T17:57:17.050Z,28.10
2022-11-04T17:59:53.307Z,29.00
2022-11-04T18:02:29.258Z,29.90
2022-11-04T18:05:05.642Z,26.90
2022-11-04T18:07:42.360Z,118.90
2022-11-04T18:10:18.459Z,58.30
2022-11-04T18:12:54.458Z,33.50
2022-11-04T18:15:31.185Z,32.60
2022-11-04T18:18:07.695Z,31.50
2022-11-04T18:20:43.868Z,31.90
2022-11-04T18:23:20.130Z,32.30
2022-11-04T18:25:56.158Z,37.00
2022-11-04T18:28:32.937Z,34.30
2022-11-04T18:31:16.788Z,30.20
2022-11-04T18:33:52.909Z,30.90
2022-11-04T18:36:29.144Z,32.70
2022-11-04T18:39:06.610Z,31.10
2022-11-04T18:41:42.759Z,39.80
2022-11-04T18:44:21.923Z,33.40
2022-11-04T18:46:58.043Z,33.70
2022-11-04T18:49:34.156Z,32.10
2022-11-04T18:52:11.585Z,36.40
2022-11-04T18:54:48.632Z,35.90
2022-11-04T18:57:24.787Z,36.20
2022-11-04T19:00:00.765Z,35.80
2022-11-04T19:02:39.939Z,35.80
2022-11-04T19:05:16.899Z,35.80
2022-11-04T19:07:52.959Z,37.00
2022-11-04T19:10:28.984Z,40.30
2022-11-04T19:13:20.677Z,39.80
2022-11-04T19:15:56.581Z,43.40
2022-11-04T19:18:32.648Z,41.10
2022-11-04T19:21:13.584Z,41.60
2022-11-04T19:23:50.535Z,39.10
2022-11-04T19:26:30.675Z,42.50
2022-11-04T19:29:08.361Z,39.80
2022-11-04T19:31:44.399Z,43.50
2022-11-04T19:34:20.664Z,38.20
2022-11-04T19:36:59.824Z,40.20
2022-11-04T19:39:38.128Z,39.60
2022-11-04T19:42:34.324Z,40.60
2022-11-04T19:45:14.541Z,38.70
2022-11-04T19:47:50.832Z,40.50
2022-11-04T19:50:30.925Z,42.90
2022-11-04T19:53:10.463Z,39.40
2022-11-04T19:55:55.931Z,41.50
2022-11-04T19:58:38.241Z,42.90
2022-11-04T20:01:18.775Z,37.40
2022-11-04T20:03:58.262Z,40.30
2022-11-04T20:06:46.801Z,40.80
2022-11-04T20:09:24.119Z,43.70
2022-11-04T20:12:18.407Z,42.40
2022-11-04T20:15:00.296Z,42.70
2022-11-04T20:17:39.121Z,39.40
2022-11-04T20:20:20.775Z,37.90
2022-11-04T20:23:01.578Z,35.80
2022-11-04T20:25:45.457Z,39.60
2022-11-04T20:28:24.130Z,51.00
2022-11-04T20:31:00.356Z,196.80
2022-11-04T20:33:36.904Z,46.40
2022-11-04T20:36:15.791Z,36.30
2022-11-04T20:38:56.029Z,37.50
2022-11-04T20:41:33.595Z,38.30
2022-11-04T20:44:10.700Z,67.60
2022-11-04T20:46:47.613Z,47.20
2022-11-04T20:49:23.862Z,34.10
2022-11-04T20:51:59.955Z,35.70
2022-11-04T20:54:36.248Z,38.80
2022-11-04T20:57:12.146Z,36.90
2022-11-04T20:59:49.816Z,35.70
2022-11-04T21:02:28.232Z,39.20
2022-11-04T21:05:04.881Z,37.50
2022-11-04T21:07:40.887Z,32.90
2022-11-04T21:10:17.830Z,34.30
2022-11-04T21:12:54.353Z,38.70
2022-11-04T21:15:42.147Z,38.00
2022-11-04T21:18:18.390Z,38.40
2022-11-04T21:20:55.713Z,33.50
2022-11-04T21:23:31.667Z,34.20
2022-11-04T21:26:15.138Z,36.50
2022-11-04T21:28:56.395Z,39.00
2022-11-04T21:31:34.568Z,37.20
2022-11-04T21:34:10.582Z,40.00
2022-11-04T21:36:46.894Z,38.20
2022-11-04T21:39:23.347Z,41.60
2022-11-04T21:41:59.530Z,46.50
2022-11-04T21:44:35.593Z,36.30
2022-11-04T21:47:11.649Z,43.50
2022-11-04T21:49:47.632Z,32.80
2022-11-04T21:52:23.763Z,37.50
2022-11-04T21:54:59.724Z,33.70
2022-11-04T21:57:38.760Z,35.10
2022-11-04T22:00:17.770Z,35.40
2022-11-04T22:02:54.110Z,37.80
2022-11-04T22:05:30.099Z,36.40
2022-11-04T22:08:18.083Z,36.10
2022-11-04T22:10:54.095Z,36.80
2022-11-04T22:13:30.042Z,38.50
2022-11-04T22:16:13.241Z,35.20
2022-11-04T22:18:51.887Z,36.90
2022-11-04T22:21:30.634Z,37.70
2022-11-04T22:24:07.075Z,32.50
2022-11-04T22:26:44.207Z,36.40
2022-11-04T22:29:20.542Z,34.80
2022-11-04T22:31:56.402Z,37.80
2022-11-04T22:34:35.126Z,36.60
2022-11-04T22:37:11.151Z,31.80
2022-11-04T22:39:47.106Z,37.80
2022-11-04T22:42:22.939Z,39.00
2022-11-04T22:44:58.799Z,37.00
2022-11-04T22:47:34.774Z,38.90
2022-11-04T22:50:12.480Z,42.40
2022-11-04T22:52:48.840Z,44.50
2022-11-04T22:55:24.792Z,40.00
2022-11-04T22:58:01.372Z,42.20
2022-11-04T23:00:37.518Z,42.20
2022-11-04T23:03:13.662Z,38.90
2022-11-04T23:05:50.365Z,40.20
2022-11-04T23:08:27.183Z,43.40
2022-11-04T23:11:26.322Z,44.00
2022-11-04T23:14:21.293Z,42.10
2022-11-04T23:17:15.487Z,43.50
2022-11-04T23:19:52.738Z,40.30
2022-11-04T23:22:46.519Z,41.70
2022-11-04T23:25:23.289Z,43.00
2022-11-04T23:28:17.911Z,40.80
2022-11-04T23:30:56.748Z,43.10
2022-11-04T23:34:02.193Z,42.90
2022-11-04T23:36:55.969Z,39.40
2022-11-04T23:39:31.963Z,46.60
2022-11-04T23:42:17.508Z,40.30
2022-11-04T23:45:14.400Z,38.80
2022-11-04T23:48:14.239Z,40.70
2022-11-04T23:51:08.137Z,40.90
2022-11-04T23:54:02.003Z,39.30
2022-11-04T23:56:55.856Z,41.40
2022-11-04T23:59:49.426Z,42.40
